Time;durP1;ratioP1;P1;durP2;ratioP2;P2;SDS_P1;SDS_P2;PMS_P1;PMS_P2;Temp;Humidity;BMP_temperature;BMP_pressure;BME280_temperature;BME280_humidity;BME280_pressure;Samples;Min_cycle;Max_cycle;Signal;HPM_P1;HPM_P2
2023/11/20 00:01:04;;;;;;;7.45;1.58;;;;;;;13.70;100.00;99693.50;4975096;28;20023;-73
2023/11/20 00:03:29;;;;;;;4.68;1.52;;;;;;;13.66;100.00;99683.84;4988325;28;20420;-73
2023/11/20 00:05:55;;;;;;;5.57;1.33;;;;;;;13.76;100.00;99678.38;4976971;28;20018;-73
2023/11/20 00:08:20;;;;;;;1.60;1.15;;;;;;;13.68;100.00;99682.28;4973773;28;20045;-73
2023/11/20 00:10:46;;;;;;;5.30;1.52;;;;;;;13.62;100.00;99683.88;4987740;28;20377;-72
2023/11/20 00:13:14;;;;;;;5.18;1.20;;;;;;;13.70;100.00;99688.06;4990665;28;20663;-73
2023/11/20 00:15:40;;;;;;;2.60;1.38;;;;;;;13.64;100.00;99686.97;4974730;28;20121;-74
2023/11/20 00:18:08;;;;;;;3.83;1.40;;;;;;;13.69;100.00;99674.91;4993763;28;20157;-73
2023/11/20 00:20:35;;;;;;;3.33;1.10;;;;;;;13.67;100.00;99672.63;4975408;28;20038;-73
2023/11/20 00:23:01;;;;;;;2.33;1.05;;;;;;;13.69;100.00;99667.59;4978896;28;20090;-73
2023/11/20 00:25:26;;;;;;;2.50;1.20;;;;;;;13.63;100.00;99676.53;4965673;28;20124;-73
2023/11/20 00:27:52;;;;;;;1.58;1.15;;;;;;;13.66;100.00;99667.63;4998857;28;20041;-74
2023/11/20 00:30:17;;;;;;;1.98;1.30;;;;;;;13.68;100.00;99671.47;4982597;28;20034;-73
2023/11/20 00:32:43;;;;;;;9.95;1.85;;;;;;;13.67;100.00;99671.84;4964344;28;20034;-73
2023/11/20 00:35:16;;;;;;;3.10;1.48;;;;;;;13.68;100.00;99670.69;4981404;28;20034;-72
2023/11/20 00:37:42;;;;;;;4.28;1.45;;;;;;;13.72;100.00;99677.63;5000380;28;20448;-73
2023/11/20 00:40:11;;;;;;;4.57;1.55;;;;;;;13.74;100.00;99664.47;4978701;28;20033;-73
2023/11/20 00:42:42;;;;;;;1.67;1.55;;;;;;;13.64;100.00;99664.53;4957119;28;20524;-73
2023/11/20 00:45:11;;;;;;;1.23;0.90;;;;;;;13.63;100.00;99658.34;4974816;28;20030;-71
2023/11/20 00:47:36;;;;;;;1.42;1.10;;;;;;;13.59;100.00;99658.38;4961463;28;20062;-73
2023/11/20 00:50:05;;;;;;;3.50;1.50;;;;;;;13.59;100.00;99657.59;4981078;28;20452;-73
2023/11/20 00:52:31;;;;;;;3.25;1.42;;;;;;;13.50;100.00;99657.31;4994616;28;20101;-73
2023/11/20 00:54:58;;;;;;;2.92;1.10;;;;;;;13.45;100.00;99657.75;4994080;28;20077;-74
2023/11/20 00:57:23;;;;;;;2.38;1.33;;;;;;;13.51;100.00;99661.56;4974044;28;20485;-74
2023/11/20 00:59:52;;;;;;;1.45;1.05;;;;;;;13.48;100.00;99667.75;4964235;28;20463;-73
2023/11/20 01:02:19;;;;;;;1.38;1.08;;;;;;;13.49;100.00;99663.91;4975033;28;20074;-73
2023/11/20 01:04:44;;;;;;;1.73;1.40;;;;;;;13.53;100.00;99659.19;4974393;28;20055;-72
2023/11/20 01:07:10;;;;;;;6.35;1.60;;;;;;;13.57;100.00;99657.25;4979452;28;20039;-73
2023/11/20 01:09:35;;;;;;;2.47;1.23;;;;;;;13.58;100.00;99661.50;4961661;28;20077;-74
2023/11/20 01:12:01;;;;;;;1.40;1.10;;;;;;;13.55;100.00;99656.88;4963801;28;20046;-73
2023/11/20 01:14:26;;;;;;;4.50;1.50;;;;;;;13.56;100.00;99667.31;4976087;28;20037;-73
2023/11/20 01:16:52;;;;;;;2.22;1.20;;;;;;;13.70;100.00;99661.03;4994315;28;20042;-73
2023/11/20 01:19:19;;;;;;;3.17;1.63;;;;;;;13.65;100.00;99663.34;4997474;28;20414;-73
2023/11/20 01:21:45;;;;;;;1.80;1.20;;;;;;;13.60;100.00;99661.88;4965362;28;20026;-72
2023/11/20 01:24:11;;;;;;;1.40;1.27;;;;;;;13.65;100.00;99664.13;4974223;28;20033;-73
2023/11/20 01:26:39;;;;;;;0.80;0.80;;;;;;;13.62;100.00;99650.63;4974186;28;20030;-73
2023/11/20 01:29:04;;;;;;;1.65;1.15;;;;;;;13.63;100.00;99661.06;4980807;28;20034;-73
2023/11/20 01:31:30;;;;;;;2.70;1.23;;;;;;;13.57;100.00;99654.53;4975505;28;20037;-73
2023/11/20 01:33:56;;;;;;;3.03;1.30;;;;;;;13.62;100.00;99662.25;4985105;28;20026;-73
2023/11/20 01:36:21;;;;;;;5.82;1.40;;;;;;;13.71;100.00;99665.25;4994543;28;20035;-73
2023/11/20 01:38:50;;;;;;;1.40;1.00;;;;;;;13.58;100.00;99656.88;4997072;28;20085;-74
2023/11/20 01:41:17;;;;;;;2.50;1.08;;;;;;;13.54;100.00;99655.34;4997473;28;20037;-73
2023/11/20 01:43:43;;;;;;;6.82;0.95;;;;;;;13.57;100.00;99657.25;5012858;28;20026;-72
2023/11/20 01:46:12;;;;;;;1.73;1.17;;;;;;;13.55;100.00;99663.06;4995487;28;20037;-73
2023/11/20 01:48:41;;;;;;;1.33;1.10;;;;;;;13.65;100.00;99656.03;4997032;28;20093;-74
2023/11/20 01:51:07;;;;;;;2.10;1.10;;;;;;;13.71;100.00;99654.41;4994332;28;20296;-73
2023/11/20 01:53:37;;;;;;;2.15;1.55;;;;;;;13.61;100.00;99666.09;4990204;28;20412;-73
2023/11/20 01:56:03;;;;;;;1.38;0.80;;;;;;;13.66;100.00;99657.56;4972415;28;20030;-73
2023/11/20 01:58:29;;;;;;;1.92;1.13;;;;;;;13.59;100.00;99654.91;4990478;28;20045;-72
2023/11/20 02:00:55;;;;;;;2.97;1.20;;;;;;;13.56;100.00;99659.19;4993932;28;20100;-74
2023/11/20 02:03:24;;;;;;;1.48;1.13;;;;;;;13.62;100.00;99662.25;4993016;28;20437;-73
2023/11/20 02:05:50;;;;;;;1.63;1.00;;;;;;;13.58;100.00;99664.97;4994016;28;20116;-72
2023/11/20 02:08:15;;;;;;;1.50;1.10;;;;;;;13.62;100.00;99658.75;4975548;28;20126;-73
2023/11/20 02:10:41;;;;;;;2.22;1.00;;;;;;;13.65;100.00;99661.44;4994564;28;20113;-72
2023/11/20 02:13:07;;;;;;;1.75;1.02;;;;;;;13.67;100.00;99659.09;4992929;28;20041;-74
2023/11/20 02:15:33;;;;;;;1.98;1.10;;;;;;;13.62;100.00;99662.25;4990321;28;20031;-74
2023/11/20 02:17:58;;;;;;;1.40;1.00;;;;;;;13.61;100.00;99663.38;4975137;28;20527;-73
2023/11/20 02:20:24;;;;;;;1.50;1.17;;;;;;;13.60;100.00;99680.81;4991889;28;20018;-73
2023/11/20 02:22:50;;;;;;;2.53;1.13;;;;;;;13.60;100.00;99659.16;4992761;28;20069;-72
2023/11/20 02:25:18;;;;;;;2.03;1.15;;;;;;;13.62;100.00;99664.16;4993745;28;20565;-73
2023/11/20 02:28:10;;;;;;;4.38;1.23;;;;;;;13.63;100.00;99671.88;4995813;28;20057;-72
2023/11/20 02:30:36;;;;;;;4.88;1.35;;;;;;;13.65;100.00;99674.97;4977490;28;20066;-74
2023/11/20 02:33:04;;;;;;;3.55;1.40;;;;;;;13.64;100.00;99668.03;4991602;28;20117;-72
2023/11/20 02:35:31;;;;;;;2.20;1.17;;;;;;;13.65;100.00;99672.25;4994262;28;20038;-73
2023/11/20 02:37:57;;;;;;;1.13;0.90;;;;;;;13.64;100.00;99669.94;4988182;28;20040;-73
2023/11/20 02:40:23;;;;;;;1.60;1.05;;;;;;;13.63;100.00;99671.88;4991835;28;20046;-73
2023/11/20 02:42:48;;;;;;;1.83;0.88;;;;;;;13.62;100.00;99670.34;4991040;28;20041;-74
2023/11/20 02:45:14;;;;;;;1.20;0.98;;;;;;;13.62;100.00;99667.66;4986875;28;20498;-73
2023/11/20 02:47:39;;;;;;;4.20;1.05;;;;;;;13.61;100.00;99665.34;4990430;28;20478;-73
2023/11/20 02:50:05;;;;;;;1.55;1.00;;;;;;;13.64;100.00;99657.19;4968669;28;20069;-73
2023/11/20 02:52:31;;;;;;;1.17;0.98;;;;;;;13.67;100.00;99659.09;4994877;28;20465;-73
2023/11/20 02:54:58;;;;;;;1.38;1.27;;;;;;;13.67;100.00;99667.22;4979009;28;20121;-72
2023/11/20 02:57:26;;;;;;;2.65;1.02;;;;;;;13.62;100.00;99667.66;4993913;28;20101;-74
2023/11/20 02:59:51;;;;;;;1.52;1.27;;;;;;;13.61;100.00;99660.69;4990206;28;20033;-73
2023/11/20 03:02:19;;;;;;;1.02;0.88;;;;;;;13.61;100.00;99655.28;4974786;28;20030;-73
2023/11/20 03:04:44;;;;;;;1.48;1.25;;;;;;;13.61;100.00;99652.56;4987135;28;20058;-74
2023/11/20 03:07:10;;;;;;;2.38;1.55;;;;;;;13.60;100.00;99664.56;4992931;28;20068;-74
2023/11/20 03:09:35;;;;;;;1.80;1.33;;;;;;;13.61;100.00;99657.97;4992602;28;20523;-74
2023/11/20 03:12:01;;;;;;;2.30;1.05;;;;;;;13.61;100.00;99657.22;4973787;28;20034;-74
2023/11/20 03:14:29;;;;;;;2.40;1.50;;;;;;;13.58;100.00;99647.97;4987555;28;20667;-73
2023/11/20 03:16:55;;;;;;;1.80;1.38;;;;;;;13.59;100.00;99654.91;4987976;28;20766;-74
2023/11/20 03:19:21;;;;;;;2.13;1.13;;;;;;;13.60;100.00;99651.03;4978877;28;20146;-74
2023/11/20 03:21:46;;;;;;;2.67;1.33;;;;;;;13.57;100.00;99658.00;4989634;28;20413;-73
2023/11/20 03:24:12;;;;;;;2.95;1.60;;;;;;;13.68;100.00;99660.66;4981499;28;20535;-74
2023/11/20 03:26:37;;;;;;;6.78;1.48;;;;;;;13.63;100.00;99666.47;4969403;28;20026;-72
2023/11/20 03:29:03;;;;;;;2.05;1.45;;;;;;;13.60;100.00;99661.88;4999112;28;20019;-72
2023/11/20 03:31:37;;;;;;;1.95;1.27;;;;;;;13.58;100.00;99664.97;4969583;28;20037;-73
2023/11/20 03:34:04;;;;;;;3.22;1.88;;;;;;;13.57;100.00;99666.13;4985630;28;20042;-73
2023/11/20 03:36:34;;;;;;;2.20;1.67;;;;;;;13.60;100.00;99669.97;5002268;28;20148;-72
2023/11/20 03:39:00;;;;;;;2.50;1.58;;;;;;;13.58;100.00;99661.50;4972161;28;20037;-73
2023/11/20 03:41:26;;;;;;;1.85;1.45;;;;;;;13.59;100.00;99652.19;4989172;28;20078;-70
2023/11/20 03:43:52;;;;;;;1.95;1.25;;;;;;;13.61;100.00;99654.53;4987787;28;20072;-72
2023/11/20 03:46:17;;;;;;;2.38;1.42;;;;;;;13.62;100.00;99662.25;4983639;28;20038;-73
2023/11/20 03:48:43;;;;;;;1.67;1.20;;;;;;;13.60;100.00;99659.16;4988567;28;20037;-73
2023/11/20 03:51:08;;;;;;;1.35;0.98;;;;;;;13.61;100.00;99655.28;4970703;28;20066;-73
2023/11/20 03:53:34;;;;;;;1.73;1.08;;;;;;;13.59;100.00;99649.50;4991360;28;20080;-73
2023/11/20 03:55:59;;;;;;;1.95;1.08;;;;;;;13.61;100.00;99655.28;4988367;28;20037;-73
2023/11/20 03:58:26;;;;;;;1.02;0.85;;;;;;;13.61;100.00;99651.81;4988855;28;20045;-73
2023/11/20 04:00:51;;;;;;;2.05;1.50;;;;;;;13.61;100.00;99651.81;4987317;28;20116;-74
2023/11/20 04:03:17;;;;;;;2.53;1.35;;;;;;;13.58;100.00;99653.38;4990381;28;20042;-73
2023/11/20 04:05:43;;;;;;;2.70;1.42;;;;;;;13.60;100.00;99659.16;4991520;28;20062;-74
2023/11/20 04:08:08;;;;;;;1.75;1.10;;;;;;;13.58;100.00;99662.28;4990643;28;20054;-69
2023/11/20 04:10:34;;;;;;;2.00;1.45;;;;;;;13.63;100.00;99652.19;4984967;28;20033;-73
2023/11/20 04:12:59;;;;;;;2.55;1.30;;;;;;;13.63;100.00;99661.06;4991458;28;20117;-72
2023/11/20 04:15:28;;;;;;;8.38;2.10;;;;;;;13.58;100.00;99656.09;4988752;28;20034;-72
2023/11/20 04:17:53;;;;;;;2.38;1.40;;;;;;;13.59;100.00;99660.31;4986344;28;20500;-73
2023/11/20 04:20:19;;;;;;;4.47;2.05;;;;;;;13.65;100.00;99663.34;4992865;28;20096;-73
2023/11/20 04:22:45;;;;;;;2.35;1.50;;;;;;;13.57;100.00;99662.66;4981881;28;20113;-74
2023/11/20 04:25:11;;;;;;;2.80;1.73;;;;;;;13.54;100.00;99668.88;4991879;28;20034;-74
2023/11/20 04:27:36;;;;;;;2.75;1.90;;;;;;;13.53;100.00;99670.03;4986448;28;20034;-74
2023/11/20 04:30:02;;;;;;;4.35;1.40;;;;;;;13.55;100.00;99664.97;4985916;28;20042;-73
2023/11/20 04:32:27;;;;;;;2.22;1.25;;;;;;;13.56;100.00;99680.84;4987537;28;20041;-73
2023/11/20 04:34:52;;;;;;;2.85;1.73;;;;;;;13.57;100.00;99676.94;4989885;28;20140;-74
2023/11/20 04:37:18;;;;;;;3.65;1.83;;;;;;;13.56;100.00;99667.31;4973383;28;20074;-72
2023/11/20 04:39:44;;;;;;;5.57;1.92;;;;;;;13.50;100.00;99666.19;4960557;28;20043;-73
2023/11/20 04:42:10;;;;;;;4.90;1.92;;;;;;;13.47;100.00;99664.28;4958031;28;20018;-73
2023/11/20 04:44:35;;;;;;;4.53;2.22;;;;;;;13.49;100.00;99666.59;4965568;28;20048;-73
2023/11/20 04:47:01;;;;;;;3.55;1.60;;;;;;;13.51;100.00;99669.69;4975674;28;20236;-73
2023/11/20 04:49:27;;;;;;;6.05;2.70;;;;;;;13.55;100.00;99671.16;4989792;28;20042;-73
2023/11/20 04:51:52;;;;;;;2.83;1.55;;;;;;;13.53;100.00;99673.50;4973857;28;20518;-74
2023/11/20 04:54:21;;;;;;;2.80;1.63;;;;;;;13.55;100.00;99673.88;4993954;28;20113;-73
2023/11/20 04:56:48;;;;;;;3.38;1.60;;;;;;;13.52;100.00;99663.88;4958352;28;20103;-73
2023/11/20 04:59:13;;;;;;;4.28;2.08;;;;;;;13.54;100.00;99677.00;4991128;28;20481;-74
2023/11/20 05:01:39;;;;;;;4.10;1.90;;;;;;;13.56;100.00;99674.66;4969952;28;20034;-73
2023/11/20 05:04:04;;;;;;;6.28;2.67;;;;;;;13.54;100.00;99679.69;4970346;28;20038;-73
2023/11/20 05:06:33;;;;;;;5.32;2.88;;;;;;;13.54;100.00;99677.75;4973434;28;20045;-73
2023/11/20 05:09:00;;;;;;;5.30;2.80;;;;;;;13.51;100.00;99678.53;4984713;28;20037;-73
2023/11/20 05:11:25;;;;;;;6.25;2.80;;;;;;;13.52;100.00;99687.44;4956026;28;20113;-72
2023/11/20 05:13:51;;;;;;;4.38;2.42;;;;;;;13.53;100.00;99697.06;4990690;28;20122;-73
2023/11/20 05:16:19;;;;;;;6.35;2.22;;;;;;;13.52;100.00;99695.53;4955059;28;20039;-72
2023/11/20 05:18:44;;;;;;;4.35;2.25;;;;;;;13.55;100.00;99698.22;4990357;28;20034;-73
2023/11/20 05:21:10;;;;;;;4.80;2.80;;;;;;;13.52;100.00;99698.25;4990120;28;20077;-73
2023/11/20 05:23:35;;;;;;;5.85;2.47;;;;;;;13.52;100.00;99707.16;4990603;28;20034;-73
2023/11/20 05:26:01;;;;;;;6.18;2.63;;;;;;;13.47;100.00;99707.56;4973153;28;20030;-73
2023/11/20 05:28:26;;;;;;;3.70;2.20;;;;;;;13.46;100.00;99706.03;4975119;28;20018;-72
2023/11/20 05:30:52;;;;;;;6.05;2.60;;;;;;;13.47;100.00;99704.84;4970462;28;20050;-73
2023/11/20 05:33:18;;;;;;;6.50;2.90;;;;;;;13.46;100.00;99702.53;4995276;28;20117;-73
2023/11/20 05:35:43;;;;;;;5.63;2.60;;;;;;;13.50;100.00;99712.19;4974252;28;20077;-74
2023/11/20 05:38:09;;;;;;;5.65;2.15;;;;;;;13.49;100.00;99715.28;4974146;28;20489;-73
2023/11/20 05:40:38;;;;;;;6.57;2.90;;;;;;;13.49;100.00;99716.03;4971800;28;20040;-74
2023/11/20 05:43:03;;;;;;;4.35;2.47;;;;;;;13.49;100.00;99716.03;4999258;28;20493;-74
2023/11/20 05:45:29;;;;;;;6.13;3.13;;;;;;;13.50;100.00;99708.69;4975814;28;20023;-74
2023/11/20 05:47:55;;;;;;;3.85;2.17;;;;;;;13.49;100.00;99704.47;4991684;28;20053;-73
2023/11/20 05:50:20;;;;;;;3.60;2.20;;;;;;;13.48;100.00;99706.41;4985116;28;20112;-73
2023/11/20 05:52:46;;;;;;;3.00;1.63;;;;;;;13.48;100.00;99708.31;4990005;28;20042;-72
2023/11/20 05:55:14;;;;;;;3.60;1.90;;;;;;;13.48;100.00;99716.44;4991648;28;20026;-74
2023/11/20 05:57:40;;;;;;;6.10;2.30;;;;;;;13.48;100.00;99717.22;4984661;28;20030;-73
2023/11/20 06:00:08;;;;;;;4.32;2.22;;;;;;;13.49;100.00;99724.16;4975675;28;20042;-72
2023/11/20 06:02:37;;;;;;;3.70;2.08;;;;;;;13.47;100.00;99718.38;4996451;28;20432;-73
2023/11/20 06:05:03;;;;;;;4.32;2.42;;;;;;;13.47;100.00;99721.06;4994414;28;20031;-73
2023/11/20 06:07:29;;;;;;;3.28;2.22;;;;;;;13.49;100.00;99718.00;4993487;28;20050;-73
2023/11/20 06:09:54;;;;;;;6.05;2.50;;;;;;;13.51;100.00;99721.81;4975790;28;20521;-74
2023/11/20 06:12:19;;;;;;;4.75;2.15;;;;;;;13.49;100.00;99718.75;4991360;28;20176;-71
2023/11/20 06:14:48;;;;;;;5.75;2.30;;;;;;;13.47;100.00;99731.16;4964381;28;20084;-73
2023/11/20 06:17:14;;;;;;;2.13;1.25;;;;;;;13.45;100.00;99717.25;4960593;28;20034;-74
2023/11/20 06:19:40;;;;;;;4.80;2.47;;;;;;;13.45;100.00;99731.53;4976162;28;20033;-73
2023/11/20 06:22:05;;;;;;;3.05;2.22;;;;;;;13.45;100.00;99722.66;4995794;28;20769;-73
2023/11/20 06:24:32;;;;;;;4.63;2.35;;;;;;;13.44;100.00;99721.88;4986992;28;20030;-73
2023/11/20 06:26:57;;;;;;;7.85;3.08;;;;;;;13.43;100.00;99717.63;4993028;28;20053;-73
2023/11/20 06:29:23;;;;;;;5.55;2.13;;;;;;;13.37;100.00;99721.94;4992202;28;20173;-73
2023/11/20 06:31:48;;;;;;;6.72;2.50;;;;;;;13.34;100.00;99717.31;4993689;28;20026;-73
2023/11/20 06:34:14;;;;;;;4.70;2.47;;;;;;;13.34;100.00;99721.94;4982861;28;20035;-72
2023/11/20 06:36:39;;;;;;;3.28;1.92;;;;;;;13.39;100.00;99726.94;4977790;28;20026;-73
2023/11/20 06:39:06;;;;;;;5.53;2.78;;;;;;;13.36;100.00;99725.00;4990207;28;20445;-73
2023/11/20 06:41:32;;;;;;;3.03;2.00;;;;;;;13.35;100.00;99731.59;4992320;28;20076;-73
2023/11/20 06:44:00;;;;;;;6.63;2.70;;;;;;;13.39;100.00;99730.41;4991794;28;20042;-72
2023/11/20 06:46:26;;;;;;;3.97;1.98;;;;;;;13.42;100.00;99739.66;4992922;28;20050;-73
2023/11/20 06:48:51;;;;;;;3.72;2.40;;;;;;;13.34;100.00;99746.28;4984318;28;20504;-72
2023/11/20 06:51:17;;;;;;;7.10;2.58;;;;;;;13.35;100.00;99754.00;4993233;28;20033;-73
2023/11/20 06:53:45;;;;;;;3.55;2.13;;;;;;;13.34;100.00;99751.69;4989125;28;20078;-74
2023/11/20 06:56:17;;;;;;;3.30;2.00;;;;;;;13.35;100.00;99761.34;4990956;28;20034;-73
2023/11/20 06:58:43;;;;;;;5.28;2.67;;;;;;;13.36;100.00;99765.59;4992999;28;20497;-72
2023/11/20 07:01:09;;;;;;;5.03;2.60;;;;;;;13.37;100.00;99765.22;4987019;28;20029;-74
2023/11/20 07:03:34;;;;;;;7.10;3.05;;;;;;;13.35;100.00;99767.53;4992996;28;20034;-74
2023/11/20 07:06:00;;;;;;;7.00;2.97;;;;;;;13.36;100.00;99774.47;4989819;28;20486;-73
2023/11/20 07:08:28;;;;;;;8.02;3.30;;;;;;;13.40;100.00;99780.63;4992413;28;20030;-73
2023/11/20 07:10:54;;;;;;;9.10;4.43;;;;;;;13.39;100.00;99789.16;4992524;28;20519;-72
2023/11/20 07:13:19;;;;;;;9.63;4.45;;;;;;;13.39;100.00;99779.06;4991714;28;20112;-73
2023/11/20 07:15:45;;;;;;;13.02;4.75;;;;;;;13.40;100.00;99785.25;4983227;28;20409;-73
2023/11/20 07:18:10;;;;;;;7.57;4.10;;;;;;;13.39;100.00;99789.91;4990236;28;20057;-73
2023/11/20 07:20:36;;;;;;;8.38;4.00;;;;;;;13.44;100.00;99791.44;4987507;28;20335;-73
2023/11/20 07:23:04;;;;;;;8.05;4.10;;;;;;;13.49;100.00;99791.03;4986902;28;20117;-72
2023/11/20 07:25:34;;;;;;;6.75;3.25;;;;;;;13.48;100.00;99790.25;4978659;28;20014;-73
2023/11/20 07:28:04;;;;;;;8.63;3.03;;;;;;;13.49;100.00;99791.03;4988952;28;20038;-73
2023/11/20 07:30:33;;;;;;;8.43;3.75;;;;;;;13.45;100.00;99799.13;4992414;28;20296;-73
2023/11/20 07:32:59;;;;;;;5.13;2.83;;;;;;;13.44;100.00;99796.84;5002209;28;20034;-70
2023/11/20 07:35:25;;;;;;;7.28;3.63;;;;;;;13.48;100.00;99803.78;4986711;28;20173;-73
2023/11/20 07:37:50;;;;;;;7.85;4.45;;;;;;;13.48;100.00;99795.66;4974084;28;20086;-73
2023/11/20 07:40:18;;;;;;;6.82;3.60;;;;;;;13.51;100.00;99791.41;4971997;28;20054;-74
2023/11/20 07:42:44;;;;;;;11.35;3.95;;;;;;;13.52;100.00;99798.34;4972217;28;20596;-73
2023/11/20 07:45:11;;;;;;;6.75;3.17;;;;;;;13.56;100.00;99797.16;4968071;28;20045;-73
2023/11/20 07:47:37;;;;;;;5.57;3.13;;;;;;;13.56;100.00;99801.81;4988400;28;20475;-72
2023/11/20 07:50:03;;;;;;;10.63;3.53;;;;;;;13.60;100.00;99799.84;4990242;28;20117;-73
2023/11/20 07:52:31;;;;;;;6.15;2.95;;;;;;;13.62;100.00;99797.50;4990881;28;20077;-73
2023/11/20 07:54:56;;;;;;;8.30;4.25;;;;;;;13.59;100.00;99803.69;4973992;28;20030;-73
2023/11/20 07:57:25;;;;;;;5.88;2.83;;;;;;;13.65;100.00;99801.34;4958288;28;20104;-73
2023/11/20 07:59:51;;;;;;;9.13;3.22;;;;;;;13.69;100.00;99797.47;4970931;28;20424;-74
2023/11/20 08:02:17;;;;;;;8.02;3.63;;;;;;;13.67;100.00;99810.63;4970046;28;20038;-74
2023/11/20 08:04:43;;;;;;;5.35;2.75;;;;;;;13.69;100.00;99812.91;4993120;28;20083;-73
2023/11/20 08:07:13;;;;;;;5.05;2.33;;;;;;;13.68;100.00;99811.41;4974430;28;20026;-73
2023/11/20 08:09:39;;;;;;;5.15;2.60;;;;;;;13.70;100.00;99815.25;4991399;28;21308;-73
2023/11/20 08:12:04;;;;;;;3.90;2.10;;;;;;;13.72;100.00;99828.38;4992125;28;20452;-73
2023/11/20 08:14:31;;;;;;;8.82;3.08;;;;;;;13.80;100.00;99810.94;4973143;28;20019;-73
2023/11/20 08:16:58;;;;;;;6.70;3.22;;;;;;;13.80;100.00;99814.38;4991461;28;20109;-72
2023/11/20 08:19:24;;;;;;;4.68;2.20;;;;;;;13.78;100.00;99815.97;4984812;28;20043;-73
2023/11/20 08:21:49;;;;;;;5.10;2.80;;;;;;;13.80;100.00;99816.34;4989916;28;20037;-73
2023/11/20 08:24:15;;;;;;;5.93;3.05;;;;;;;13.80;100.00;99813.66;4997834;28;20393;-72
2023/11/20 08:26:40;;;;;;;8.85;2.85;;;;;;;13.82;100.00;99819.44;4987232;28;20029;-74
2023/11/20 08:29:11;;;;;;;5.50;2.72;;;;;;;13.82;100.00;99822.88;4960184;28;20037;-73
2023/11/20 08:31:37;;;;;;;6.03;3.08;;;;;;;13.88;100.00;99825.97;4991729;28;20089;-73
2023/11/20 08:34:04;;;;;;;5.43;2.67;;;;;;;13.94;100.00;99835.19;4993736;28;20061;-73
2023/11/20 08:36:31;;;;;;;5.85;2.30;;;;;;;14.01;100.00;99830.50;4972882;28;20057;-72
2023/11/20 08:38:57;;;;;;;6.57;2.65;;;;;;;13.97;100.00;99824.34;4952196;28;20050;-73
2023/11/20 08:41:22;;;;;;;7.30;3.22;;;;;;;13.96;100.00;99836.34;4992270;28;20057;-73
2023/11/20 08:43:48;;;;;;;6.97;3.17;;;;;;;13.98;100.00;99836.72;4989195;28;20033;-72
2023/11/20 08:46:13;;;;;;;7.60;3.05;;;;;;;14.00;100.00;99831.66;4993602;28;20032;-72
2023/11/20 08:48:39;;;;;;;8.60;3.40;;;;;;;14.02;100.00;99826.63;4984255;28;20062;-72
2023/11/20 08:51:08;;;;;;;5.25;2.30;;;;;;;14.04;100.00;99837.84;4956407;28;20088;-72
2023/11/20 08:53:33;;;;;;;6.00;2.80;;;;;;;13.96;100.00;99830.91;4986883;28;20022;-73
2023/11/20 08:55:59;;;;;;;6.30;2.78;;;;;;;13.95;100.00;99831.31;4990097;28;20517;-74
2023/11/20 08:58:24;;;;;;;5.05;2.33;;;;;;;13.94;100.00;99835.19;4989827;28;20084;-70
2023/11/20 09:00:50;;;;;;;8.70;2.83;;;;;;;13.97;100.00;99829.75;4972195;28;20036;-73
2023/11/20 09:03:15;;;;;;;5.65;2.97;;;;;;;14.04;100.00;99824.28;4971870;28;20041;-73
2023/11/20 09:05:41;;;;;;;4.80;2.50;;;;;;;14.03;100.00;99822.00;4987958;28;20030;-73
2023/11/20 09:08:06;;;;;;;5.18;2.83;;;;;;;14.03;100.00;99816.56;4972647;28;20034;-73
2023/11/20 09:10:32;;;;;;;6.63;2.95;;;;;;;14.09;100.00;99825.81;4994844;28;20038;-74
2023/11/20 09:12:57;;;;;;;6.15;2.50;;;;;;;14.07;100.00;99825.44;4969134;28;20034;-73
2023/11/20 09:15:24;;;;;;;4.93;2.78;;;;;;;14.08;100.00;99825.03;4989169;28;20049;-73
2023/11/20 09:17:50;;;;;;;5.22;2.60;;;;;;;14.11;100.00;99832.34;4974862;28;20073;-73
2023/11/20 09:20:20;;;;;;;11.23;2.95;;;;;;;14.20;100.00;99831.91;4956830;28;20521;-73
2023/11/20 09:22:47;;;;;;;4.90;2.77;;;;;;;14.18;100.00;99835.03;4991089;28;20508;-73
2023/11/20 09:25:12;;;;;;;8.13;2.22;;;;;;;14.13;100.00;99835.44;4963856;28;20034;-72
2023/11/20 09:27:44;;;;;;;5.03;2.63;;;;;;;14.12;100.00;99842.03;4992612;28;20508;-73
2023/11/20 09:30:10;;;;;;;6.00;2.42;;;;;;;14.14;100.00;99845.09;4979528;28;20052;-74
2023/11/20 09:32:35;;;;;;;5.63;2.80;;;;;;;14.15;100.00;99852.06;4996202;28;20034;-72
2023/11/20 09:35:01;;;;;;;7.15;3.20;;;;;;;14.14;100.00;99847.81;4994469;28;20033;-73
2023/11/20 09:37:27;;;;;;;9.32;3.17;;;;;;;14.22;100.00;99841.19;5001554;28;20033;-72
2023/11/20 09:39:53;;;;;;;7.90;3.67;;;;;;;14.22;100.00;99838.47;5008096;28;20030;-74
2023/11/20 09:42:22;;;;;;;6.60;2.25;;;;;;;14.22;100.00;99843.13;4992751;28;20500;-73
2023/11/20 09:44:50;;;;;;;6.47;3.42;;;;;;;14.19;100.00;99841.97;4990324;28;20041;-73
2023/11/20 09:47:16;;;;;;;7.60;2.67;;;;;;;14.18;100.00;99831.53;4993209;28;20034;-73
2023/11/20 09:49:44;;;;;;;6.22;2.78;;;;;;;14.13;100.00;99835.44;4992656;28;20515;-73
2023/11/20 09:52:10;;;;;;;7.78;2.63;;;;;;;14.14;100.00;99836.22;4994340;28;20435;-72
2023/11/20 09:54:38;;;;;;;8.15;3.20;;;;;;;14.14;100.00;99834.28;4992790;28;20137;-74
2023/11/20 09:57:04;;;;;;;3.78;2.35;;;;;;;14.16;100.00;99834.66;4992405;28;20042;-74
2023/11/20 09:59:30;;;;;;;7.70;3.45;;;;;;;14.19;100.00;99833.84;4990753;28;20029;-74
2023/11/20 10:01:58;;;;;;;6.25;3.08;;;;;;;14.24;100.00;99832.66;4995014;28;20025;-74
2023/11/20 10:04:24;;;;;;;6.78;3.08;;;;;;;14.26;100.00;99833.81;4999019;28;20042;-73
2023/11/20 10:06:54;;;;;;;7.78;3.65;;;;;;;14.29;100.00;99834.97;4992551;28;20027;-73
2023/11/20 10:09:22;;;;;;;7.65;3.22;;;;;;;14.36;100.00;99829.50;4993163;28;20026;-74
2023/11/20 10:11:51;;;;;;;5.57;2.92;;;;;;;14.33;100.00;99833.00;4995352;28;20042;-73
2023/11/20 10:14:19;;;;;;;5.07;2.40;;;;;;;14.32;100.00;99834.91;5008162;28;20039;-73
2023/11/20 10:16:51;;;;;;;7.20;3.20;;;;;;;14.30;100.00;99839.97;4995411;28;20030;-72
2023/11/20 10:19:16;;;;;;;5.65;2.90;;;;;;;14.35;100.00;99842.25;4990739;28;20089;-73
2023/11/20 10:21:43;;;;;;;9.48;3.22;;;;;;;14.32;100.00;99848.47;4975939;28;20440;-73
2023/11/20 10:24:13;;;;;;;5.93;3.17;;;;;;;14.29;100.00;99841.16;4992426;28;20042;-73
2023/11/20 10:26:41;;;;;;;7.82;3.15;;;;;;;14.26;100.00;99839.22;4994239;28;20022;-73
2023/11/20 10:29:09;;;;;;;10.68;4.10;;;;;;;14.38;100.00;99840.69;4993095;28;20052;-74
2023/11/20 10:31:45;;;;;;;8.07;3.28;;;;;;;14.26;99.92;99836.50;4975611;28;20034;-73
2023/11/20 10:34:11;;;;;;;9.77;3.90;;;;;;;14.23;99.86;99837.28;4991288;28;20030;-73
2023/11/20 10:36:38;;;;;;;9.02;3.72;;;;;;;14.20;100.00;99837.31;4995696;28;20026;-73
2023/11/20 10:39:05;;;;;;;7.57;3.13;;;;;;;14.29;100.00;99827.59;4959911;28;20122;-73
2023/11/20 10:41:31;;;;;;;9.85;3.90;;;;;;;14.25;100.00;99828.75;4980466;28;20065;-73
2023/11/20 10:43:58;;;;;;;13.90;3.50;;;;;;;14.23;100.00;99829.16;4981266;28;20034;-73
2023/11/20 10:46:28;;;;;;;7.60;3.20;;;;;;;14.30;100.00;99826.41;4976677;28;20030;-71
2023/11/20 10:48:55;;;;;;;10.25;2.80;;;;;;;14.31;100.00;99829.91;4991276;28;20034;-73
2023/11/20 10:51:24;;;;;;;7.43;3.03;;;;;;;14.36;100.00;99818.66;5000429;28;20037;-72
2023/11/20 10:54:02;;;;;;;4.55;2.00;;;;;;;14.36;99.58;99819.41;4974404;28;22075;-72
2023/11/20 10:56:31;;;;;;;9.40;2.92;;;;;;;14.30;100.00;99820.25;4975024;28;20117;-72
2023/11/20 10:59:00;;;;;;;8.90;2.85;;;;;;;14.30;100.00;99821.00;4977146;28;20040;-72
2023/11/20 11:01:28;;;;;;;8.77;3.30;;;;;;;14.39;100.00;99813.22;4975715;28;20026;-73
2023/11/20 11:03:55;;;;;;;10.50;3.13;;;;;;;14.56;99.94;99833.16;4975757;28;20034;-73
2023/11/20 11:06:24;;;;;;;8.18;3.22;;;;;;;14.47;100.00;99824.75;4976040;28;20529;-74
2023/11/20 11:08:51;;;;;;;9.38;3.40;;;;;;;14.45;100.00;99827.09;4975516;28;20435;-72
2023/11/20 11:11:18;;;;;;;7.57;2.55;;;;;;;14.41;100.00;99829.84;4975218;28;20034;-73
2023/11/20 11:13:47;;;;;;;8.57;3.47;;;;;;;14.43;100.00;99829.44;4976805;28;20427;-73
2023/11/20 11:16:46;;;;;;;8.98;3.28;;;;;;;14.39;100.00;99832.16;4974963;28;20045;-72
2023/11/20 11:19:15;;;;;;;8.10;3.88;;;;;;;14.40;100.00;99820.16;4995216;28;20390;-73
2023/11/20 11:21:52;;;;;;;8.32;2.80;;;;;;;14.38;100.00;99817.06;4997283;28;20034;-73